sensor_id;sensor_type;location;lat;lon;timestamp;temperature;humidity
6764;DHT22;47432;48.760;9.178;2023-04-03T00:00:35;4.10;99.90
6764;DHT22;47432;48.760;9.178;2023-04-03T00:05:26;4.10;99.90
6764;DHT22;47432;48.760;9.178;2023-04-03T00:10:18;4.00;99.90
6764;DHT22;47432;48.760;9.178;2023-04-03T00:15:11;3.80;99.90
6764;DHT22;47432;48.760;9.178;2023-04-03T00:20:04;3.60;99.90
6764;DHT22;47432;48.760;9.178;2023-04-03T00:22:30;3.60;99.90
6764;DHT22;47432;48.760;9.178;2023-04-03T00:27:22;3.70;99.90
6764;DHT22;47432;48.760;9.178;2023-04-03T00:32:16;3.70;99.90
6764;DHT22;47432;48.760;9.178;2023-04-03T00:34:42;3.60;99.90
6764;DHT22;47432;48.760;9.178;2023-04-03T00:37:07;3.70;99.90
6764;DHT22;47432;48.760;9.178;2023-04-03T00:39:33;3.80;99.90
6764;DHT22;47432;48.760;9.178;2023-04-03T00:41:58;3.90;99.90
6764;DHT22;47432;48.760;9.178;2023-04-03T00:47:08;3.80;99.90
6764;DHT22;47432;48.760;9.178;2023-04-03T00:49:34;3.80;99.90
6764;DHT22;47432;48.760;9.178;2023-04-03T00:52:01;3.70;99.90
6764;DHT22;47432;48.760;9.178;2023-04-03T00:56:54;3.60;99.90
6764;DHT22;47432;48.760;9.178;2023-04-03T00:59:27;3.60;99.90
6764;DHT22;47432;48.760;9.178;2023-04-03T01:01:56;3.60;99.90
6764;DHT22;47432;48.760;9.178;2023-04-03T01:04:29;3.60;99.90
6764;DHT22;47432;48.760;9.178;2023-04-03T01:07:00;3.70;99.90
6764;DHT22;47432;48.760;9.178;2023-04-03T01:09:28;3.60;99.90
6764;DHT22;47432;48.760;9.178;2023-04-03T01:11:54;3.70;99.90
6764;DHT22;47432;48.760;9.178;2023-04-03T01:14:19;3.70;99.90
6764;DHT22;47432;48.760;9.178;2023-04-03T01:16:54;3.70;99.90
6764;DHT22;47432;48.760;9.178;2023-04-03T01:19:22;3.60;99.90
6764;DHT22;47432;48.760;9.178;2023-04-03T01:22:01;3.60;99.90
6764;DHT22;47432;48.760;9.178;2023-04-03T01:24:36;3.50;99.90
6764;DHT22;47432;48.760;9.178;2023-04-03T01:27:06;3.50;99.90
6764;DHT22;47432;48.760;9.178;2023-04-03T01:29:35;3.40;99.90
6764;DHT22;47432;48.760;9.178;2023-04-03T01:32:02;3.40;99.90
6764;DHT22;47432;48.760;9.178;2023-04-03T01:34:28;3.30;99.90
6764;DHT22;47432;48.760;9.178;2023-04-03T01:44:13;3.30;99.90
6764;DHT22;47432;48.760;9.178;2023-04-03T02:01:18;3.10;99.90
6764;DHT22;47432;48.760;9.178;2023-04-03T02:03:43;3.10;99.90
6764;DHT22;47432;48.760;9.178;2023-04-03T02:06:09;3.20;99.90
6764;DHT22;47432;48.760;9.178;2023-04-03T02:08:35;3.20;99.90
6764;DHT22;47432;48.760;9.178;2023-04-03T02:20:48;3.30;99.90
6764;DHT22;47432;48.760;9.178;2023-04-03T02:23:13;3.30;99.90
6764;DHT22;47432;48.760;9.178;2023-04-03T02:25:39;3.30;99.90
6764;DHT22;47432;48.760;9.178;2023-04-03T02:28:05;3.30;99.90
6764;DHT22;47432;48.760;9.178;2023-04-03T02:30:31;3.30;99.90
6764;DHT22;47432;48.760;9.178;2023-04-03T02:35:23;3.40;99.90
6764;DHT22;47432;48.760;9.178;2023-04-03T02:37:49;3.50;99.90
6764;DHT22;47432;48.760;9.178;2023-04-03T02:45:09;3.50;99.90
6764;DHT22;47432;48.760;9.178;2023-04-03T02:50:01;3.50;99.90
6764;DHT22;47432;48.760;9.178;2023-04-03T02:52:27;3.60;99.90
6764;DHT22;47432;48.760;9.178;2023-04-03T02:54:52;3.60;99.90
6764;DHT22;47432;48.760;9.178;2023-04-03T02:57:18;3.50;99.90
6764;DHT22;47432;48.760;9.178;2023-04-03T03:02:11;3.50;99.90
6764;DHT22;47432;48.760;9.178;2023-04-03T03:07:03;3.40;99.90
6764;DHT22;47432;48.760;9.178;2023-04-03T03:09:29;3.40;99.90
6764;DHT22;47432;48.760;9.178;2023-04-03T03:11:56;3.20;99.90
6764;DHT22;47432;48.760;9.178;2023-04-03T03:16:48;3.40;99.90
6764;DHT22;47432;48.760;9.178;2023-04-03T03:33:51;3.60;99.90
6764;DHT22;47432;48.760;9.178;2023-04-03T03:36:17;3.60;99.90
6764;DHT22;47432;48.760;9.178;2023-04-03T03:38:43;3.60;99.90
6764;DHT22;47432;48.760;9.178;2023-04-03T03:41:09;3.60;99.90
6764;DHT22;47432;48.760;9.178;2023-04-03T03:46:01;3.50;99.90
6764;DHT22;47432;48.760;9.178;2023-04-03T03:50:52;3.60;99.90
6764;DHT22;47432;48.760;9.178;2023-04-03T03:53:18;3.60;99.90
6764;DHT22;47432;48.760;9.178;2023-04-03T04:03:03;3.50;99.90
6764;DHT22;47432;48.760;9.178;2023-04-03T04:05:28;3.50;99.90
6764;DHT22;47432;48.760;9.178;2023-04-03T04:10:20;3.40;99.90
6764;DHT22;47432;48.760;9.178;2023-04-03T04:15:16;3.50;99.90
6764;DHT22;47432;48.760;9.178;2023-04-03T04:20:08;3.50;99.90
6764;DHT22;47432;48.760;9.178;2023-04-03T04:22:34;3.60;99.90
6764;DHT22;47432;48.760;9.178;2023-04-03T04:29:53;3.60;99.90
6764;DHT22;47432;48.760;9.178;2023-04-03T04:32:18;3.60;99.90
6764;DHT22;47432;48.760;9.178;2023-04-03T04:37:13;3.60;99.90
6764;DHT22;47432;48.760;9.178;2023-04-03T04:39:38;3.60;99.90
6764;DHT22;47432;48.760;9.178;2023-04-03T04:46:58;3.60;99.90
6764;DHT22;47432;48.760;9.178;2023-04-03T04:51:50;3.50;99.90
6764;DHT22;47432;48.760;9.178;2023-04-03T05:04:01;3.60;99.90
6764;DHT22;47432;48.760;9.178;2023-04-03T05:13:45;3.70;99.90
6764;DHT22;47432;48.760;9.178;2023-04-03T05:16:11;3.70;99.90
6764;DHT22;47432;48.760;9.178;2023-04-03T05:18:37;3.60;99.90
6764;DHT22;47432;48.760;9.178;2023-04-03T05:21:03;3.70;99.90
6764;DHT22;47432;48.760;9.178;2023-04-03T05:28:24;3.80;99.90
6764;DHT22;47432;48.760;9.178;2023-04-03T05:30:57;3.80;99.90
6764;DHT22;47432;48.760;9.178;2023-04-03T05:33:24;3.90;99.90
6764;DHT22;47432;48.760;9.178;2023-04-03T05:35:51;3.90;99.90
6764;DHT22;47432;48.760;9.178;2023-04-03T05:38:18;3.90;99.90
6764;DHT22;47432;48.760;9.178;2023-04-03T05:45:36;3.90;99.90
6764;DHT22;47432;48.760;9.178;2023-04-03T05:48:02;4.00;99.90
6764;DHT22;47432;48.760;9.178;2023-04-03T05:50:27;4.10;99.90
6764;DHT22;47432;48.760;9.178;2023-04-03T05:52:56;4.00;99.90
6764;DHT22;47432;48.760;9.178;2023-04-03T05:55:23;4.00;99.90
6764;DHT22;47432;48.760;9.178;2023-04-03T06:02:42;3.90;99.90
6764;DHT22;47432;48.760;9.178;2023-04-03T06:05:09;3.90;99.90
6764;DHT22;47432;48.760;9.178;2023-04-03T06:10:03;3.80;99.90
6764;DHT22;47432;48.760;9.178;2023-04-03T06:12:29;3.80;99.90
6764;DHT22;47432;48.760;9.178;2023-04-03T06:14:55;3.90;99.90
6764;DHT22;47432;48.760;9.178;2023-04-03T06:17:21;3.90;99.90
6764;DHT22;47432;48.760;9.178;2023-04-03T06:19:47;4.00;99.90
6764;DHT22;47432;48.760;9.178;2023-04-03T06:22:14;4.10;99.90
6764;DHT22;47432;48.760;9.178;2023-04-03T06:24:40;4.20;99.90
6764;DHT22;47432;48.760;9.178;2023-04-03T06:29:32;4.10;99.90
6764;DHT22;47432;48.760;9.178;2023-04-03T06:31:58;4.10;99.90
6764;DHT22;47432;48.760;9.178;2023-04-03T06:34:24;4.10;99.90
6764;DHT22;47432;48.760;9.178;2023-04-03T06:36:50;4.20;99.90
6764;DHT22;47432;48.760;9.178;2023-04-03T06:39:20;4.20;99.90
6764;DHT22;47432;48.760;9.178;2023-04-03T06:41:47;4.30;99.90
6764;DHT22;47432;48.760;9.178;2023-04-03T06:44:13;4.50;99.90
6764;DHT22;47432;48.760;9.178;2023-04-03T06:46:42;4.50;99.90
6764;DHT22;47432;48.760;9.178;2023-04-03T06:49:09;4.50;99.90
6764;DHT22;47432;48.760;9.178;2023-04-03T06:51:35;4.60;99.90
6764;DHT22;47432;48.760;9.178;2023-04-03T06:54:03;4.60;99.90
6764;DHT22;47432;48.760;9.178;2023-04-03T06:56:30;4.70;99.90
6764;DHT22;47432;48.760;9.178;2023-04-03T06:58:56;4.70;99.90
6764;DHT22;47432;48.760;9.178;2023-04-03T07:01:27;4.70;99.90
6764;DHT22;47432;48.760;9.178;2023-04-03T07:03:54;4.70;99.90
6764;DHT22;47432;48.760;9.178;2023-04-03T07:06:21;4.80;99.90
6764;DHT22;47432;48.760;9.178;2023-04-03T07:08:47;4.80;99.90
6764;DHT22;47432;48.760;9.178;2023-04-03T07:11:16;4.70;99.90
6764;DHT22;47432;48.760;9.178;2023-04-03T07:16:08;4.90;99.90
6764;DHT22;47432;48.760;9.178;2023-04-03T07:21:01;5.00;99.90
6764;DHT22;47432;48.760;9.178;2023-04-03T07:23:27;5.10;99.90
6764;DHT22;47432;48.760;9.178;2023-04-03T07:25:53;5.20;99.90
6764;DHT22;47432;48.760;9.178;2023-04-03T07:28:20;5.20;99.90
6764;DHT22;47432;48.760;9.178;2023-04-03T07:30:50;5.30;99.90
6764;DHT22;47432;48.760;9.178;2023-04-03T07:33:18;5.20;99.90
6764;DHT22;47432;48.760;9.178;2023-04-03T07:35:46;5.40;99.90
6764;DHT22;47432;48.760;9.178;2023-04-03T07:40:38;5.50;99.90
6764;DHT22;47432;48.760;9.178;2023-04-03T07:43:05;5.50;99.90
6764;DHT22;47432;48.760;9.178;2023-04-03T07:45:31;5.60;99.90
6764;DHT22;47432;48.760;9.178;2023-04-03T07:47:58;5.60;99.90
6764;DHT22;47432;48.760;9.178;2023-04-03T07:50:24;5.50;99.90
6764;DHT22;47432;48.760;9.178;2023-04-03T07:52:50;5.50;99.90
6764;DHT22;47432;48.760;9.178;2023-04-03T07:55:17;5.70;99.90
6764;DHT22;47432;48.760;9.178;2023-04-03T07:57:43;5.70;99.90
6764;DHT22;47432;48.760;9.178;2023-04-03T08:00:09;6.10;99.90
6764;DHT22;47432;48.760;9.178;2023-04-03T08:02:37;6.00;99.90
6764;DHT22;47432;48.760;9.178;2023-04-03T08:05:03;6.00;99.90
6764;DHT22;47432;48.760;9.178;2023-04-03T08:07:29;6.00;99.90
6764;DHT22;47432;48.760;9.178;2023-04-03T08:09:55;6.10;99.90
6764;DHT22;47432;48.760;9.178;2023-04-03T08:12:21;5.90;99.90
6764;DHT22;47432;48.760;9.178;2023-04-03T08:14:47;5.80;99.90
6764;DHT22;47432;48.760;9.178;2023-04-03T08:17:12;5.80;99.90
6764;DHT22;47432;48.760;9.178;2023-04-03T08:19:39;5.90;99.90
6764;DHT22;47432;48.760;9.178;2023-04-03T08:22:05;5.90;99.90
6764;DHT22;47432;48.760;9.178;2023-04-03T08:24:32;5.90;99.90
6764;DHT22;47432;48.760;9.178;2023-04-03T08:26:59;6.00;99.90
6764;DHT22;47432;48.760;9.178;2023-04-03T08:29:25;6.00;99.90
6764;DHT22;47432;48.760;9.178;2023-04-03T08:31:51;6.10;99.90
6764;DHT22;47432;48.760;9.178;2023-04-03T08:34:18;6.20;99.90
6764;DHT22;47432;48.760;9.178;2023-04-03T08:36:47;6.20;99.90
6764;DHT22;47432;48.760;9.178;2023-04-03T08:39:12;5.90;99.90
6764;DHT22;47432;48.760;9.178;2023-04-03T08:41:43;5.90;99.90
6764;DHT22;47432;48.760;9.178;2023-04-03T08:44:41;6.00;99.90
6764;DHT22;47432;48.760;9.178;2023-04-03T08:48:26;6.20;99.90
6764;DHT22;47432;48.760;9.178;2023-04-03T08:50:51;6.30;99.90
6764;DHT22;47432;48.760;9.178;2023-04-03T08:53:27;6.70;99.90
6764;DHT22;47432;48.760;9.178;2023-04-03T08:55:58;6.80;99.90
6764;DHT22;47432;48.760;9.178;2023-04-03T08:58:36;6.80;99.90
6764;DHT22;47432;48.760;9.178;2023-04-03T09:01:21;6.70;99.90
6764;DHT22;47432;48.760;9.178;2023-04-03T09:03:50;7.10;99.90
6764;DHT22;47432;48.760;9.178;2023-04-03T09:06:20;7.10;99.90
6764;DHT22;47432;48.760;9.178;2023-04-03T09:14:42;7.10;99.90
6764;DHT22;47432;48.760;9.178;2023-04-03T09:17:36;6.80;99.90
6764;DHT22;47432;48.760;9.178;2023-04-03T09:23:49;6.80;99.90
6764;DHT22;47432;48.760;9.178;2023-04-03T09:26:24;6.90;99.90
6764;DHT22;47432;48.760;9.178;2023-04-03T09:28:57;6.90;99.90
6764;DHT22;47432;48.760;9.178;2023-04-03T09:31:32;7.10;99.90
6764;DHT22;47432;48.760;9.178;2023-04-03T09:34:59;6.90;99.90
6764;DHT22;47432;48.760;9.178;2023-04-03T09:37:04;6.80;99.90
6764;DHT22;47432;48.760;9.178;2023-04-03T09:39:54;6.80;99.90
6764;DHT22;47432;48.760;9.178;2023-04-03T09:42:23;6.90;99.90
6764;DHT22;47432;48.760;9.178;2023-04-03T09:44:59;7.10;99.90
6764;DHT22;47432;48.760;9.178;2023-04-03T09:47:35;7.10;99.90
6764;DHT22;47432;48.760;9.178;2023-04-03T09:50:21;7.10;99.90
6764;DHT22;47432;48.760;9.178;2023-04-03T09:52:50;7.00;99.90
6764;DHT22;47432;48.760;9.178;2023-04-03T09:55:27;7.00;99.90
6764;DHT22;47432;48.760;9.178;2023-04-03T09:58:05;7.10;99.90
6764;DHT22;47432;48.760;9.178;2023-04-03T10:00:58;7.30;99.90
6764;DHT22;47432;48.760;9.178;2023-04-03T10:03:36;7.00;99.90
6764;DHT22;47432;48.760;9.178;2023-04-03T10:06:23;6.80;99.90
6764;DHT22;47432;48.760;9.178;2023-04-03T10:09:02;6.50;99.90
6764;DHT22;47432;48.760;9.178;2023-04-03T10:11:30;6.60;99.90
6764;DHT22;47432;48.760;9.178;2023-04-03T10:14:02;6.70;99.90
6764;DHT22;47432;48.760;9.178;2023-04-03T10:16:42;6.50;99.90
6764;DHT22;47432;48.760;9.178;2023-04-03T10:19:42;6.30;99.90
6764;DHT22;47432;48.760;9.178;2023-04-03T10:28:00;6.90;99.90
6764;DHT22;47432;48.760;9.178;2023-04-03T10:31:02;7.10;99.90
6764;DHT22;47432;48.760;9.178;2023-04-03T10:36:51;7.20;99.90
6764;DHT22;47432;48.760;9.178;2023-04-03T10:42:41;6.90;99.90
6764;DHT22;47432;48.760;9.178;2023-04-03T10:48:15;6.60;99.90
6764;DHT22;47432;48.760;9.178;2023-04-03T10:56:53;6.60;99.90
6764;DHT22;47432;48.760;9.178;2023-04-03T10:59:37;6.60;99.90
6764;DHT22;47432;48.760;9.178;2023-04-03T11:02:25;6.70;99.90
6764;DHT22;47432;48.760;9.178;2023-04-03T11:05:00;6.80;99.90
6764;DHT22;47432;48.760;9.178;2023-04-03T11:07:32;6.80;99.90
6764;DHT22;47432;48.760;9.178;2023-04-03T11:13:47;6.80;99.90
6764;DHT22;47432;48.760;9.178;2023-04-03T11:16:21;6.80;99.90
6764;DHT22;47432;48.760;9.178;2023-04-03T11:18:54;7.00;99.90
6764;DHT22;47432;48.760;9.178;2023-04-03T11:21:32;7.30;99.90
6764;DHT22;47432;48.760;9.178;2023-04-03T11:24:17;7.40;99.90
6764;DHT22;47432;48.760;9.178;2023-04-03T11:26:49;7.40;99.90
6764;DHT22;47432;48.760;9.178;2023-04-03T11:29:21;7.40;99.90
6764;DHT22;47432;48.760;9.178;2023-04-03T11:32:14;7.50;99.90
6764;DHT22;47432;48.760;9.178;2023-04-03T11:35:00;7.30;99.90
6764;DHT22;47432;48.760;9.178;2023-04-03T11:37:35;7.30;99.90
6764;DHT22;47432;48.760;9.178;2023-04-03T11:43:06;7.30;99.90
6764;DHT22;47432;48.760;9.178;2023-04-03T11:46:05;7.20;99.90
6764;DHT22;47432;48.760;9.178;2023-04-03T11:54:57;7.00;99.90
6764;DHT22;47432;48.760;9.178;2023-04-03T11:57:42;7.20;99.90
6764;DHT22;47432;48.760;9.178;2023-04-03T12:03:30;7.00;99.90
6764;DHT22;47432;48.760;9.178;2023-04-03T12:08:50;7.20;99.90
6764;DHT22;47432;48.760;9.178;2023-04-03T12:11:30;7.40;99.90
6764;DHT22;47432;48.760;9.178;2023-04-03T12:14:03;7.50;99.90
6764;DHT22;47432;48.760;9.178;2023-04-03T12:19:29;7.40;99.90
6764;DHT22;47432;48.760;9.178;2023-04-03T12:24:36;7.20;99.90
6764;DHT22;47432;48.760;9.178;2023-04-03T12:27:26;7.30;99.90
6764;DHT22;47432;48.760;9.178;2023-04-03T12:30:16;7.30;99.90
6764;DHT22;47432;48.760;9.178;2023-04-03T12:36:13;7.40;99.90
6764;DHT22;47432;48.760;9.178;2023-04-03T12:38:58;7.60;99.90
6764;DHT22;47432;48.760;9.178;2023-04-03T12:41:37;7.60;99.90
6764;DHT22;47432;48.760;9.178;2023-04-03T12:44:24;7.60;99.90
6764;DHT22;47432;48.760;9.178;2023-04-03T12:47:00;7.60;99.90
6764;DHT22;47432;48.760;9.178;2023-04-03T12:49:38;7.40;98.70
6764;DHT22;47432;48.760;9.178;2023-04-03T12:52:29;7.40;98.90
6764;DHT22;47432;48.760;9.178;2023-04-03T12:55:00;7.10;98.70
6764;DHT22;47432;48.760;9.178;2023-04-03T12:57:30;7.10;99.10
6764;DHT22;47432;48.760;9.178;2023-04-03T12:59:58;7.20;99.70
6764;DHT22;47432;48.760;9.178;2023-04-03T13:02:32;7.50;99.60
6764;DHT22;47432;48.760;9.178;2023-04-03T13:05:08;7.70;99.70
6764;DHT22;47432;48.760;9.178;2023-04-03T13:07:39;7.70;98.80
6764;DHT22;47432;48.760;9.178;2023-04-03T13:10:15;7.70;99.20
6764;DHT22;47432;48.760;9.178;2023-04-03T13:12:56;7.90;99.20
6764;DHT22;47432;48.760;9.178;2023-04-03T13:15:27;9.40;97.70
6764;DHT22;47432;48.760;9.178;2023-04-03T13:18:24;10.00;95.80
6764;DHT22;47432;48.760;9.178;2023-04-03T13:21:07;10.30;94.60
6764;DHT22;47432;48.760;9.178;2023-04-03T13:23:39;11.00;94.60
6764;DHT22;47432;48.760;9.178;2023-04-03T13:26:08;10.70;93.30
6764;DHT22;47432;48.760;9.178;2023-04-03T13:28:35;11.00;92.50
6764;DHT22;47432;48.760;9.178;2023-04-03T13:34:09;11.10;91.30
6764;DHT22;47432;48.760;9.178;2023-04-03T13:36:41;11.00;91.50
6764;DHT22;47432;48.760;9.178;2023-04-03T13:41:51;9.90;92.30
6764;DHT22;47432;48.760;9.178;2023-04-03T13:47:21;9.10;93.00
6764;DHT22;47432;48.760;9.178;2023-04-03T13:50:23;9.50;94.10
6764;DHT22;47432;48.760;9.178;2023-04-03T13:53:08;9.60;92.20
6764;DHT22;47432;48.760;9.178;2023-04-03T13:55:51;9.80;92.20
6764;DHT22;47432;48.760;9.178;2023-04-03T13:58:23;9.90;91.10
6764;DHT22;47432;48.760;9.178;2023-04-03T14:00:55;9.70;91.40
6764;DHT22;47432;48.760;9.178;2023-04-03T14:03:53;9.80;92.30
6764;DHT22;47432;48.760;9.178;2023-04-03T14:06:22;9.70;91.70
6764;DHT22;47432;48.760;9.178;2023-04-03T14:08:48;9.30;91.60
6764;DHT22;47432;48.760;9.178;2023-04-03T14:11:21;9.30;92.30
6764;DHT22;47432;48.760;9.178;2023-04-03T14:13:49;9.00;92.30
6764;DHT22;47432;48.760;9.178;2023-04-03T14:16:19;8.70;93.10
6764;DHT22;47432;48.760;9.178;2023-04-03T14:18:48;8.60;93.40
6764;DHT22;47432;48.760;9.178;2023-04-03T14:21:16;8.60;93.50
6764;DHT22;47432;48.760;9.178;2023-04-03T14:23:42;8.40;93.30
6764;DHT22;47432;48.760;9.178;2023-04-03T14:26:15;8.20;93.20
6764;DHT22;47432;48.760;9.178;2023-04-03T14:28:50;8.10;94.20
6764;DHT22;47432;48.760;9.178;2023-04-03T14:31:17;8.10;94.60
6764;DHT22;47432;48.760;9.178;2023-04-03T14:33:44;8.10;94.30
6764;DHT22;47432;48.760;9.178;2023-04-03T14:36:23;8.20;94.40
6764;DHT22;47432;48.760;9.178;2023-04-03T14:38:51;8.60;94.50
6764;DHT22;47432;48.760;9.178;2023-04-03T14:41:21;10.10;92.50
6764;DHT22;47432;48.760;9.178;2023-04-03T14:43:49;11.90;90.70
6764;DHT22;47432;48.760;9.178;2023-04-03T14:46:20;12.80;86.80
6764;DHT22;47432;48.760;9.178;2023-04-03T14:48:49;13.30;84.20
6764;DHT22;47432;48.760;9.178;2023-04-03T14:51:15;12.60;80.30
6764;DHT22;47432;48.760;9.178;2023-04-03T14:53:43;11.60;82.50
6764;DHT22;47432;48.760;9.178;2023-04-03T14:56:24;10.80;84.30
6764;DHT22;47432;48.760;9.178;2023-04-03T14:58:59;10.30;86.00
6764;DHT22;47432;48.760;9.178;2023-04-03T15:01:27;9.80;88.00
6764;DHT22;47432;48.760;9.178;2023-04-03T15:03:54;9.00;88.80
6764;DHT22;47432;48.760;9.178;2023-04-03T15:06:20;8.60;90.00
6764;DHT22;47432;48.760;9.178;2023-04-03T15:08:47;8.30;90.70
6764;DHT22;47432;48.760;9.178;2023-04-03T15:11:13;8.10;90.90
6764;DHT22;47432;48.760;9.178;2023-04-03T15:16:14;7.90;90.70
6764;DHT22;47432;48.760;9.178;2023-04-03T15:18:42;7.90;91.00
6764;DHT22;47432;48.760;9.178;2023-04-03T15:21:09;7.90;91.20
6764;DHT22;47432;48.760;9.178;2023-04-03T15:26:01;8.20;90.90
6764;DHT22;47432;48.760;9.178;2023-04-03T15:28:33;8.30;91.00
6764;DHT22;47432;48.760;9.178;2023-04-03T15:31:02;8.50;90.10
6764;DHT22;47432;48.760;9.178;2023-04-03T15:33:29;8.50;89.90
6764;DHT22;47432;48.760;9.178;2023-04-03T15:38:21;8.10;87.60
6764;DHT22;47432;48.760;9.178;2023-04-03T15:40:47;7.90;89.20
6764;DHT22;47432;48.760;9.178;2023-04-03T15:45:40;7.70;89.20
6764;DHT22;47432;48.760;9.178;2023-04-03T15:50:33;7.60;91.60
6764;DHT22;47432;48.760;9.178;2023-04-03T15:53:00;7.90;91.60
6764;DHT22;47432;48.760;9.178;2023-04-03T15:55:29;10.00;89.00
6764;DHT22;47432;48.760;9.178;2023-04-03T15:57:56;11.90;83.10
6764;DHT22;47432;48.760;9.178;2023-04-03T16:00:25;13.40;82.00
6764;DHT22;47432;48.760;9.178;2023-04-03T16:03:05;14.60;73.70
6764;DHT22;47432;48.760;9.178;2023-04-03T16:05:33;14.50;73.80
6764;DHT22;47432;48.760;9.178;2023-04-03T16:08:01;15.50;72.80
6764;DHT22;47432;48.760;9.178;2023-04-03T16:10:27;16.10;69.20
6764;DHT22;47432;48.760;9.178;2023-04-03T16:12:53;16.60;69.40
6764;DHT22;47432;48.760;9.178;2023-04-03T16:15:19;15.70;61.50
6764;DHT22;47432;48.760;9.178;2023-04-03T16:17:45;16.40;63.10
6764;DHT22;47432;48.760;9.178;2023-04-03T16:20:13;17.40;60.70
6764;DHT22;47432;48.760;9.178;2023-04-03T16:22:39;16.80;56.20
6764;DHT22;47432;48.760;9.178;2023-04-03T16:25:06;14.00;56.40
6764;DHT22;47432;48.760;9.178;2023-04-03T16:29:59;11.20;62.00
6764;DHT22;47432;48.760;9.178;2023-04-03T16:32:27;10.50;63.70
6764;DHT22;47432;48.760;9.178;2023-04-03T16:37:21;9.30;69.20
6764;DHT22;47432;48.760;9.178;2023-04-03T16:47:06;8.20;72.00
6764;DHT22;47432;48.760;9.178;2023-04-03T16:49:33;8.30;72.50
6764;DHT22;47432;48.760;9.178;2023-04-03T16:52:00;8.40;73.50
6764;DHT22;47432;48.760;9.178;2023-04-03T16:54:27;8.30;73.90
6764;DHT22;47432;48.760;9.178;2023-04-03T16:59:23;8.50;76.80
6764;DHT22;47432;48.760;9.178;2023-04-03T17:01:49;8.60;77.20
6764;DHT22;47432;48.760;9.178;2023-04-03T17:09:07;8.70;76.70
6764;DHT22;47432;48.760;9.178;2023-04-03T17:11:34;8.90;76.80
6764;DHT22;47432;48.760;9.178;2023-04-03T17:16:30;9.00;76.00
6764;DHT22;47432;48.760;9.178;2023-04-03T17:21:23;9.10;76.20
6764;DHT22;47432;48.760;9.178;2023-04-03T17:23:54;9.70;75.50
6764;DHT22;47432;48.760;9.178;2023-04-03T17:26:23;10.00;74.60
6764;DHT22;47432;48.760;9.178;2023-04-03T17:28:51;9.80;74.70
6764;DHT22;47432;48.760;9.178;2023-04-03T17:33:43;9.10;74.70
6764;DHT22;47432;48.760;9.178;2023-04-03T17:36:09;8.50;76.50
6764;DHT22;47432;48.760;9.178;2023-04-03T17:38:35;7.60;85.50
6764;DHT22;47432;48.760;9.178;2023-04-03T17:41:04;7.40;80.10
6764;DHT22;47432;48.760;9.178;2023-04-03T17:43:31;7.10;81.40
6764;DHT22;47432;48.760;9.178;2023-04-03T17:46:06;6.90;82.30
6764;DHT22;47432;48.760;9.178;2023-04-03T17:51:09;6.60;84.30
6764;DHT22;47432;48.760;9.178;2023-04-03T17:53:37;6.50;85.30
6764;DHT22;47432;48.760;9.178;2023-04-03T17:56:08;6.50;85.70
6764;DHT22;47432;48.760;9.178;2023-04-03T17:58:35;6.30;86.10
6764;DHT22;47432;48.760;9.178;2023-04-03T18:01:31;6.20;86.30
6764;DHT22;47432;48.760;9.178;2023-04-03T18:04:01;6.10;86.00
6764;DHT22;47432;48.760;9.178;2023-04-03T18:06:52;6.10;87.30
6764;DHT22;47432;48.760;9.178;2023-04-03T18:09:21;6.10;87.60
6764;DHT22;47432;48.760;9.178;2023-04-03T18:11:49;5.90;89.00
6764;DHT22;47432;48.760;9.178;2023-04-03T18:14:19;5.80;89.20
6764;DHT22;47432;48.760;9.178;2023-04-03T18:21:41;5.80;90.60
6764;DHT22;47432;48.760;9.178;2023-04-03T18:24:11;5.70;90.90
6764;DHT22;47432;48.760;9.178;2023-04-03T18:26:40;5.60;90.90
6764;DHT22;47432;48.760;9.178;2023-04-03T18:29:09;5.60;91.50
6764;DHT22;47432;48.760;9.178;2023-04-03T18:31:36;5.60;91.40
6764;DHT22;47432;48.760;9.178;2023-04-03T18:34:08;5.60;91.60
6764;DHT22;47432;48.760;9.178;2023-04-03T18:36:34;5.50;91.60
6764;DHT22;47432;48.760;9.178;2023-04-03T18:38:59;5.60;92.00
6764;DHT22;47432;48.760;9.178;2023-04-03T18:41:28;5.60;91.90
6764;DHT22;47432;48.760;9.178;2023-04-03T18:43:58;5.60;91.70
6764;DHT22;47432;48.760;9.178;2023-04-03T18:48:53;5.50;91.90
6764;DHT22;47432;48.760;9.178;2023-04-03T18:58:37;5.30;92.10
6764;DHT22;47432;48.760;9.178;2023-04-03T19:01:04;5.10;92.00
6764;DHT22;47432;48.760;9.178;2023-04-03T19:03:31;5.10;92.30
6764;DHT22;47432;48.760;9.178;2023-04-03T19:05:58;5.00;92.40
6764;DHT22;47432;48.760;9.178;2023-04-03T19:08:24;4.90;92.40
6764;DHT22;47432;48.760;9.178;2023-04-03T19:10:49;4.80;92.50
6764;DHT22;47432;48.760;9.178;2023-04-03T19:13:17;4.70;92.70
6764;DHT22;47432;48.760;9.178;2023-04-03T19:15:45;4.60;92.90
6764;DHT22;47432;48.760;9.178;2023-04-03T19:18:11;4.50;93.20
6764;DHT22;47432;48.760;9.178;2023-04-03T19:20:37;4.50;93.30
6764;DHT22;47432;48.760;9.178;2023-04-03T19:23:03;4.50;93.40
6764;DHT22;47432;48.760;9.178;2023-04-03T19:25:29;4.50;93.50
6764;DHT22;47432;48.760;9.178;2023-04-03T19:30:23;4.30;94.10
6764;DHT22;47432;48.760;9.178;2023-04-03T19:35:16;4.30;94.30
6764;DHT22;47432;48.760;9.178;2023-04-03T19:37:42;4.40;94.00
6764;DHT22;47432;48.760;9.178;2023-04-03T19:40:08;4.40;94.40
6764;DHT22;47432;48.760;9.178;2023-04-03T19:45:05;4.60;94.10
6764;DHT22;47432;48.760;9.178;2023-04-03T19:47:33;4.50;94.10
6764;DHT22;47432;48.760;9.178;2023-04-03T19:49:59;4.60;94.10
6764;DHT22;47432;48.760;9.178;2023-04-03T19:57:18;4.60;93.70
6764;DHT22;47432;48.760;9.178;2023-04-03T20:14:22;4.10;94.40
6764;DHT22;47432;48.760;9.178;2023-04-03T20:19:14;4.10;94.60
6764;DHT22;47432;48.760;9.178;2023-04-03T20:21:41;4.00;94.40
6764;DHT22;47432;48.760;9.178;2023-04-03T20:24:07;3.90;94.30
6764;DHT22;47432;48.760;9.178;2023-04-03T20:26:33;3.90;94.60
6764;DHT22;47432;48.760;9.178;2023-04-03T20:29:03;3.80;94.60
6764;DHT22;47432;48.760;9.178;2023-04-03T20:31:30;3.70;94.80
6764;DHT22;47432;48.760;9.178;2023-04-03T20:33:56;3.70;94.80
6764;DHT22;47432;48.760;9.178;2023-04-03T20:36:22;3.60;94.90
6764;DHT22;47432;48.760;9.178;2023-04-03T20:41:17;3.40;95.20
6764;DHT22;47432;48.760;9.178;2023-04-03T20:51:17;3.20;96.00
6764;DHT22;47432;48.760;9.178;2023-04-03T20:53:45;3.20;96.20
6764;DHT22;47432;48.760;9.178;2023-04-03T20:58:39;2.90;96.60
6764;DHT22;47432;48.760;9.178;2023-04-03T21:01:18;2.80;97.30
6764;DHT22;47432;48.760;9.178;2023-04-03T21:03:46;2.80;97.30
6764;DHT22;47432;48.760;9.178;2023-04-03T21:24:11;1.80;99.90
6764;DHT22;47432;48.760;9.178;2023-04-03T21:26:39;1.70;99.90
6764;DHT22;47432;48.760;9.178;2023-04-03T21:29:06;1.70;99.90
6764;DHT22;47432;48.760;9.178;2023-04-03T21:31:51;1.80;99.90
6764;DHT22;47432;48.760;9.178;2023-04-03T21:34:30;1.80;99.90
6764;DHT22;47432;48.760;9.178;2023-04-03T21:37:04;1.90;99.90
6764;DHT22;47432;48.760;9.178;2023-04-03T21:39:32;1.90;99.90
6764;DHT22;47432;48.760;9.178;2023-04-03T21:41:58;1.90;99.90
6764;DHT22;47432;48.760;9.178;2023-04-03T21:44:24;2.00;99.90
6764;DHT22;47432;48.760;9.178;2023-04-03T21:46:51;2.10;99.90
6764;DHT22;47432;48.760;9.178;2023-04-03T21:49:23;1.90;99.90
6764;DHT22;47432;48.760;9.178;2023-04-03T21:51:49;2.00;99.90
6764;DHT22;47432;48.760;9.178;2023-04-03T21:56:42;1.90;99.90
6764;DHT22;47432;48.760;9.178;2023-04-03T22:01:34;1.70;99.90
6764;DHT22;47432;48.760;9.178;2023-04-03T22:06:27;1.50;99.90
6764;DHT22;47432;48.760;9.178;2023-04-03T22:08:53;1.40;99.90
6764;DHT22;47432;48.760;9.178;2023-04-03T22:13:51;1.10;99.90